Tourist.f.b.terzo — IQAQ — position and weather

sailwx.info

Track history (hours):
 
Tides and Currents Weather Stations Pressure Air Temp Water Temp Dewpoint Dewpoint Depression Visibility Wind Speed Wind Dir Waves Ship Positions

Tourist.f.b.terzo

Last reported at 2014-Sep-23 09:33 UTC. Time now 2014-Sep-23 10:21 UTC.
Position N 40°47' E 014°01'.

Length 53 m; draft 1.8 m.

Type: Cargo ship. MMSI: 247048900.

Date/timePositionNaut miles runAvg speedWind from/ knotsBaromVisibWave heightAir tempDewpointWater temp
2014-Sep-23 09:33N 40°47' E 014°01'5 5.3
2014-Sep-23 08:33N 40°49' E 014°07'4 3.8
2014-Sep-23 07:33N 40°46' E 014°04'8 7.5
2014-Sep-23 06:33N 40°45' E 013°54'7 7.4
2014-Sep-23 05:33N 40°47' E 014°04'4 3.7
2014-Sep-23 04:33N 40°49' E 014°07'6 5.7
2014-Sep-23 03:33N 40°47' E 014°01'5 4.9
2014-Sep-23 02:33N 40°45' E 013°54'5 4.9
2014-Sep-23 01:33N 40°46' E 014°01'6 5.6
2014-Sep-23 00:33N 40°49' E 014°07'3 3.5
2014-Sep-22 23:33N 40°46' E 014°05'6 6.2
2014-Sep-22 22:33N 40°46' E 013°57'2 1.8
2014-Sep-22 21:33N 40°45' E 013°54'7 0.5
2014-Sep-22 06:11N 40°46' E 014°04'1 0.6
2014-Sep-22 04:25N 40°46' E 014°02'2 1.1
2014-Sep-22 02:29N 40°46' E 013°59'4 0.3
2014-Sep-21 13:27N 40°45' E 013°54'0 0.0
2014-Sep-20 18:20N 40°45' E 013°54'0 0.0
2014-Sep-20 17:33N 40°45' E 013°54'4 0.4
2014-Sep-20 08:33N 40°46' E 013°59'  
2014-Sep-17 21:13N 40°45' E 013°54'0 0.0
2014-Sep-17 20:33N 40°45' E 013°54'0 0.0
2014-Sep-17 19:33N 40°45' E 013°54'0 0.0
2014-Sep-17 18:34N 40°45' E 013°54'0 0.0
2014-Sep-17 17:34N 40°45' E 013°54'0 0.0
2014-Sep-17 16:34N 40°45' E 013°54'0 0.0
2014-Sep-17 15:34N 40°45' E 013°54'0 0.0
2014-Sep-17 14:34N 40°45' E 013°54'0 0.0
2014-Sep-17 13:33N 40°45' E 013°54'0 0.0
2014-Sep-16 05:33N 40°45' E 013°54'6 5.6
2014-Sep-16 04:33N 40°47' E 014°02'5 5.0
2014-Sep-16 03:33N 40°49' E 014°07'7 7.0
2014-Sep-16 02:33N 40°46' E 013°59'2 1.5
2014-Sep-16 01:33N 40°46' E 013°57'7 7.0
2014-Sep-16 00:33N 40°47' E 014°06'0 0.3
2014-Sep-15 23:33N 40°47' E 014°06'8 8.2
2014-Sep-15 22:33N 40°45' E 013°55'1 0.7
2014-Sep-15 21:33N 40°45' E 013°54'0 0.0
2014-Sep-15 20:33N 40°45' E 013°54'0 0.0
2014-Sep-15 19:33N 40°45' E 013°54'0 0.0
2014-Sep-15 18:33N 40°45' E 013°54'0 0.0
2014-Sep-15 17:33N 40°45' E 013°54'0 0.0
2014-Sep-15 16:33N 40°45' E 013°54'0 0.0
2014-Sep-15 15:33N 40°45' E 013°54'0 0.0
2014-Sep-15 14:33N 40°45' E 013°54'0 0.0
2014-Sep-15 13:33N 40°45' E 013°54'0 0.0
2014-Sep-15 12:33N 40°45' E 013°54'0 0.0
2014-Sep-15 11:34N 40°45' E 013°54'0 0.0
2014-Sep-15 10:34N 40°45' E 013°54'0 0.0
2014-Sep-15 09:34N 40°45' E 013°54'3 3.3
2014-Sep-15 08:33N 40°46' E 013°59'7 7.1
2014-Sep-15 07:33N 40°49' E 014°07'4 4.0
2014-Sep-15 06:34N 40°46' E 014°04'6 6.2
2014-Sep-15 05:33N 40°46' E 013°56'5 5.4
2014-Sep-15 04:33N 40°47' E 014°03'4 4.0
2014-Sep-15 03:33N 40°49' E 014°07'7 7.2
2014-Sep-15 02:33N 40°46' E 013°58'2 2.4
2014-Sep-15 01:33N 40°45' E 013°55'8 7.8
2014-Sep-15 00:33N 40°46' E 014°05'1 0.6
2014-Sep-14 23:33N 40°47' E 014°06'8 8.4
2014-Sep-14 22:33N 40°45' E 013°55'0 0.4
2014-Sep-14 21:33N 40°45' E 013°54'0 0.0
2014-Sep-14 20:33N 40°45' E 013°54'0 0.0
2014-Sep-14 19:33N 40°45' E 013°54'0 0.0
2014-Sep-14 18:33N 40°45' E 013°54'0 0.0
2014-Sep-14 17:33N 40°45' E 013°54'0 0.0
2014-Sep-14 16:33N 40°45' E 013°54'0 0.0
2014-Sep-14 15:33N 40°45' E 013°54'0 0.0
2014-Sep-14 14:33N 40°45' E 013°54'0 0.0
2014-Sep-14 13:33N 40°45' E 013°54'0 0.0
2014-Sep-14 12:33N 40°45' E 013°54'0 0.0
2014-Sep-14 11:33N 40°45' E 013°54'0 0.0
2014-Sep-14 10:33N 40°45' E 013°54'0 0.0
2014-Sep-14 09:33N 40°45' E 013°54'0 0.0
2014-Sep-14 08:33N 40°45' E 013°54'0 0.0
2014-Sep-14 07:33N 40°45' E 013°54'0 0.0
2014-Sep-14 06:33N 40°45' E 013°54'0 0.0
2014-Sep-14 05:33N 40°45' E 013°54'0 0.0
2014-Sep-14 04:33N 40°45' E 013°54'0 0.0
2014-Sep-14 03:33N 40°45' E 013°54'0 0.0
2014-Sep-14 02:33N 40°45' E 013°54'0 0.0
2014-Sep-14 01:33N 40°45' E 013°54'0 0.0
2014-Sep-13 21:33N 40°45' E 013°54'0 0.0
2014-Sep-13 20:33N 40°45' E 013°54'0 0.0
2014-Sep-13 19:33N 40°45' E 013°54'0 0.0
2014-Sep-13 18:33N 40°45' E 013°54'0 0.0
2014-Sep-13 17:33N 40°45' E 013°54'0 0.0
2014-Sep-13 16:33N 40°45' E 013°54'0 0.0
2014-Sep-13 15:33N 40°45' E 013°54'0 0.0
2014-Sep-13 14:33N 40°45' E 013°54'0 0.0
2014-Sep-13 13:33N 40°45' E 013°54'0 0.0
2014-Sep-13 12:33N 40°45' E 013°54'0 0.0
2014-Sep-13 11:33N 40°45' E 013°54'0 0.0
2014-Sep-13 10:33N 40°45' E 013°54'0 0.0
2014-Sep-13 09:33N 40°45' E 013°54'  
Track history (hours):
 
Tides and Currents Weather Stations Pressure Air Temp Water Temp Dewpoint Dewpoint Depression Visibility Wind Speed Wind Dir Waves Ship Positions

Tourist.f.b.terzo

Last reported at 2014-Sep-23 09:33 UTC. Time now 2014-Sep-23 10:21 UTC.
Position N 40°47' E 014°01'.

Length 53 m; draft 1.8 m.

Type: Cargo ship. MMSI: 247048900.

Date/timePositionNaut miles runAvg speedWind from/ knotsBaromVisibWave heightAir tempDewpointWater temp
2014-Sep-23 09:33N 40°47' E 014°01'5 5.3
2014-Sep-23 08:33N 40°49' E 014°07'4 3.8
2014-Sep-23 07:33N 40°46' E 014°04'8 7.5
2014-Sep-23 06:33N 40°45' E 013°54'7 7.4
2014-Sep-23 05:33N 40°47' E 014°04'4 3.7
2014-Sep-23 04:33N 40°49' E 014°07'6 5.7
2014-Sep-23 03:33N 40°47' E 014°01'5 4.9
2014-Sep-23 02:33N 40°45' E 013°54'5 4.9
2014-Sep-23 01:33N 40°46' E 014°01'6 5.6
2014-Sep-23 00:33N 40°49' E 014°07'3 3.5
2014-Sep-22 23:33N 40°46' E 014°05'6 6.2
2014-Sep-22 22:33N 40°46' E 013°57'2 1.8
2014-Sep-22 21:33N 40°45' E 013°54'7 0.5
2014-Sep-22 06:11N 40°46' E 014°04'1 0.6
2014-Sep-22 04:25N 40°46' E 014°02'2 1.1
2014-Sep-22 02:29N 40°46' E 013°59'4 0.3
2014-Sep-21 13:27N 40°45' E 013°54'0 0.0
2014-Sep-20 18:20N 40°45' E 013°54'0 0.0
2014-Sep-20 17:33N 40°45' E 013°54'4 0.4
2014-Sep-20 08:33N 40°46' E 013°59'  
2014-Sep-17 21:13N 40°45' E 013°54'0 0.0
2014-Sep-17 20:33N 40°45' E 013°54'0 0.0
2014-Sep-17 19:33N 40°45' E 013°54'0 0.0
2014-Sep-17 18:34N 40°45' E 013°54'0 0.0
2014-Sep-17 17:34N 40°45' E 013°54'0 0.0
2014-Sep-17 16:34N 40°45' E 013°54'0 0.0
2014-Sep-17 15:34N 40°45' E 013°54'0 0.0
2014-Sep-17 14:34N 40°45' E 013°54'0 0.0
2014-Sep-17 13:33N 40°45' E 013°54'0 0.0
2014-Sep-16 05:33N 40°45' E 013°54'6 5.6
2014-Sep-16 04:33N 40°47' E 014°02'5 5.0
2014-Sep-16 03:33N 40°49' E 014°07'7 7.0
2014-Sep-16 02:33N 40°46' E 013°59'2 1.5
2014-Sep-16 01:33N 40°46' E 013°57'7 7.0
2014-Sep-16 00:33N 40°47' E 014°06'0 0.3
2014-Sep-15 23:33N 40°47' E 014°06'8 8.2
2014-Sep-15 22:33N 40°45' E 013°55'1 0.7
2014-Sep-15 21:33N 40°45' E 013°54'0 0.0
2014-Sep-15 20:33N 40°45' E 013°54'0 0.0
2014-Sep-15 19:33N 40°45' E 013°54'0 0.0
2014-Sep-15 18:33N 40°45' E 013°54'0 0.0
2014-Sep-15 17:33N 40°45' E 013°54'0 0.0
2014-Sep-15 16:33N 40°45' E 013°54'0 0.0
2014-Sep-15 15:33N 40°45' E 013°54'0 0.0
2014-Sep-15 14:33N 40°45' E 013°54'0 0.0
2014-Sep-15 13:33N 40°45' E 013°54'0 0.0
2014-Sep-15 12:33N 40°45' E 013°54'0 0.0
2014-Sep-15 11:34N 40°45' E 013°54'0 0.0
2014-Sep-15 10:34N 40°45' E 013°54'0 0.0
2014-Sep-15 09:34N 40°45' E 013°54'3 3.3
2014-Sep-15 08:33N 40°46' E 013°59'7 7.1
2014-Sep-15 07:33N 40°49' E 014°07'4 4.0
2014-Sep-15 06:34N 40°46' E 014°04'6 6.2
2014-Sep-15 05:33N 40°46' E 013°56'5 5.4
2014-Sep-15 04:33N 40°47' E 014°03'4 4.0
2014-Sep-15 03:33N 40°49' E 014°07'7 7.2
2014-Sep-15 02:33N 40°46' E 013°58'2 2.4
2014-Sep-15 01:33N 40°45' E 013°55'8 7.8
2014-Sep-15 00:33N 40°46' E 014°05'1 0.6
2014-Sep-14 23:33N 40°47' E 014°06'8 8.4
2014-Sep-14 22:33N 40°45' E 013°55'0 0.4
2014-Sep-14 21:33N 40°45' E 013°54'0 0.0
2014-Sep-14 20:33N 40°45' E 013°54'0 0.0
2014-Sep-14 19:33N 40°45' E 013°54'0 0.0
2014-Sep-14 18:33N 40°45' E 013°54'0 0.0
2014-Sep-14 17:33N 40°45' E 013°54'0 0.0
2014-Sep-14 16:33N 40°45' E 013°54'0 0.0
2014-Sep-14 15:33N 40°45' E 013°54'0 0.0
2014-Sep-14 14:33N 40°45' E 013°54'0 0.0
2014-Sep-14 13:33N 40°45' E 013°54'0 0.0
2014-Sep-14 12:33N 40°45' E 013°54'0 0.0
2014-Sep-14 11:33N 40°45' E 013°54'0 0.0
2014-Sep-14 10:33N 40°45' E 013°54'0 0.0
2014-Sep-14 09:33N 40°45' E 013°54'0 0.0
2014-Sep-14 08:33N 40°45' E 013°54'0 0.0
2014-Sep-14 07:33N 40°45' E 013°54'0 0.0
2014-Sep-14 06:33N 40°45' E 013°54'0 0.0
2014-Sep-14 05:33N 40°45' E 013°54'0 0.0
2014-Sep-14 04:33N 40°45' E 013°54'0 0.0
2014-Sep-14 03:33N 40°45' E 013°54'0 0.0
2014-Sep-14 02:33N 40°45' E 013°54'0 0.0
2014-Sep-14 01:33N 40°45' E 013°54'0 0.0
2014-Sep-13 21:33N 40°45' E 013°54'0 0.0
2014-Sep-13 20:33N 40°45' E 013°54'0 0.0
2014-Sep-13 19:33N 40°45' E 013°54'0 0.0
2014-Sep-13 18:33N 40°45' E 013°54'0 0.0
2014-Sep-13 17:33N 40°45' E 013°54'0 0.0
2014-Sep-13 16:33N 40°45' E 013°54'0 0.0
2014-Sep-13 15:33N 40°45' E 013°54'0 0.0
2014-Sep-13 14:33N 40°45' E 013°54'0 0.0
2014-Sep-13 13:33N 40°45' E 013°54'0 0.0
2014-Sep-13 12:33N 40°45' E 013°54'0 0.0
2014-Sep-13 11:33N 40°45' E 013°54'0 0.0
2014-Sep-13 10:33N 40°45' E 013°54'0 0.0
2014-Sep-13 09:33N 40°45' E 013°54'  

Dump ship's entire track history